sensor_id;sensor_type;location;lat;lon;timestamp;pressure;altitude;pressure_sealevel;temperature;humidity
47530;BME280;33272;51.922;7.730;2023-01-26T00:01:08;142395.97;;;-0.47;100.00
47530;BME280;33272;51.922;7.730;2023-01-26T00:03:36;142395.97;;;-0.47;100.00
47530;BME280;33272;51.922;7.730;2023-01-26T00:06:04;142395.97;;;-0.47;100.00
47530;BME280;33272;51.922;7.730;2023-01-26T00:08:34;142363.31;;;-0.60;100.00
47530;BME280;33272;51.922;7.730;2023-01-26T00:11:03;142368.34;;;-0.58;100.00
47530;BME280;33272;51.922;7.730;2023-01-26T00:13:30;142372.13;;;-0.57;100.00
47530;BME280;33272;51.922;7.730;2023-01-26T00:15:58;142374.63;;;-0.56;100.00
47530;BME280;33272;51.922;7.730;2023-01-26T00:18:26;142373.38;;;-0.56;100.00
47530;BME280;33272;51.922;7.730;2023-01-26T00:20:57;142365.84;;;-0.59;100.00
47530;BME280;33272;51.922;7.730;2023-01-26T00:23:24;142364.59;;;-0.60;100.00
47530;BME280;33272;51.922;7.730;2023-01-26T00:25:52;142328.22;;;-0.75;100.00
47530;BME280;33272;51.922;7.730;2023-01-26T00:28:19;142303.13;;;-0.85;100.00
47530;BME280;33272;51.922;7.730;2023-01-26T00:30:46;142295.59;;;-0.88;100.00
47530;BME280;33272;51.922;7.730;2023-01-26T00:33:13;142305.63;;;-0.84;100.00
47530;BME280;33272;51.922;7.730;2023-01-26T00:35:42;142286.78;;;-0.91;100.00
47530;BME280;33272;51.922;7.730;2023-01-26T00:38:09;142291.81;;;-0.89;100.00
47530;BME280;33272;51.922;7.730;2023-01-26T00:40:37;142294.31;;;-0.88;100.00
47530;BME280;33272;51.922;7.730;2023-01-26T00:43:04;142288.06;;;-0.91;100.00
47530;BME280;33272;51.922;7.730;2023-01-26T00:45:31;142298.09;;;-0.87;100.00
47530;BME280;33272;51.922;7.730;2023-01-26T00:47:58;142303.13;;;-0.85;100.00
47530;BME280;33272;51.922;7.730;2023-01-26T00:50:26;142309.34;;;-0.82;100.00
47530;BME280;33272;51.922;7.730;2023-01-26T00:52:54;142304.38;;;-0.84;100.00
47530;BME280;33272;51.922;7.730;2023-01-26T00:55:21;142284.28;;;-0.93;100.00
47530;BME280;33272;51.922;7.730;2023-01-26T00:57:49;142284.28;;;-0.93;100.00
47530;BME280;33272;51.922;7.730;2023-01-26T01:00:16;142284.28;;;-0.93;100.00
47530;BME280;33272;51.922;7.730;2023-01-26T01:02:44;142289.31;;;-0.90;100.00
47530;BME280;33272;51.922;7.730;2023-01-26T01:05:11;142262.94;;;-1.01;100.00
47530;BME280;33272;51.922;7.730;2023-01-26T01:07:38;142279.28;;;-0.95;100.00
47530;BME280;33272;51.922;7.730;2023-01-26T01:10:08;142290.56;;;-0.90;100.00
47530;BME280;33272;51.922;7.730;2023-01-26T01:12:35;142257.97;;;-1.03;100.00
47530;BME280;33272;51.922;7.730;2023-01-26T01:15:03;142241.66;;;-1.10;100.00
47530;BME280;33272;51.922;7.730;2023-01-26T01:17:30;142230.34;;;-1.14;100.00
47530;BME280;33272;51.922;7.730;2023-01-26T01:19:58;142205.28;;;-1.25;100.00
47530;BME280;33272;51.922;7.730;2023-01-26T01:22:25;142219.06;;;-1.19;100.00
47530;BME280;33272;51.922;7.730;2023-01-26T01:24:52;142226.59;;;-1.16;100.00
47530;BME280;33272;51.922;7.730;2023-01-26T01:27:20;142230.34;;;-1.14;100.00
47530;BME280;33272;51.922;7.730;2023-01-26T01:29:49;142260.44;;;-1.02;100.00
47530;BME280;33272;51.922;7.730;2023-01-26T01:32:16;142250.44;;;-1.06;100.00
47530;BME280;33272;51.922;7.730;2023-01-26T01:34:45;142266.72;;;-1.00;100.00
47530;BME280;33272;51.922;7.730;2023-01-26T01:37:12;142280.53;;;-0.94;100.00
47530;BME280;33272;51.922;7.730;2023-01-26T01:39:39;142283.03;;;-0.93;100.00
47530;BME280;33272;51.922;7.730;2023-01-26T01:42:07;142237.88;;;-1.11;100.00
47530;BME280;33272;51.922;7.730;2023-01-26T01:44:37;142234.13;;;-1.13;100.00
47530;BME280;33272;51.922;7.730;2023-01-26T01:47:08;142252.91;;;-1.05;100.00
47530;BME280;33272;51.922;7.730;2023-01-26T01:49:43;142265.47;;;-1.00;100.00
47530;BME280;33272;51.922;7.730;2023-01-26T01:52:14;142278.00;;;-0.95;100.00
47530;BME280;33272;51.922;7.730;2023-01-26T01:54:46;142273.00;;;-0.97;100.00
47530;BME280;33272;51.922;7.730;2023-01-26T01:57:19;142266.72;;;-1.00;100.00
47530;BME280;33272;51.922;7.730;2023-01-26T01:59:57;142262.94;;;-1.01;100.00
47530;BME280;33272;51.922;7.730;2023-01-26T02:02:26;142275.50;;;-0.96;100.00
47530;BME280;33272;51.922;7.730;2023-01-26T02:04:56;142286.78;;;-0.91;100.00
47530;BME280;33272;51.922;7.730;2023-01-26T02:07:27;142291.81;;;-0.89;100.00
47530;BME280;33272;51.922;7.730;2023-01-26T02:09:56;142298.09;;;-0.87;100.00
47530;BME280;33272;51.922;7.730;2023-01-26T02:12:41;142299.34;;;-0.86;100.00
47530;BME280;33272;51.922;7.730;2023-01-26T02:15:10;142306.88;;;-0.83;100.00
47530;BME280;33272;51.922;7.730;2023-01-26T02:17:38;142308.13;;;-0.83;100.00
47530;BME280;33272;51.922;7.730;2023-01-26T02:20:13;142300.59;;;-0.86;100.00
47530;BME280;33272;51.922;7.730;2023-01-26T02:22:50;142299.34;;;-0.86;100.00
47530;BME280;33272;51.922;7.730;2023-01-26T02:25:27;142314.41;;;-0.80;100.00
47530;BME280;33272;51.922;7.730;2023-01-26T02:28:00;142288.06;;;-0.91;100.00
47530;BME280;33272;51.922;7.730;2023-01-26T02:30:29;142293.06;;;-0.89;100.00
47530;BME280;33272;51.922;7.730;2023-01-26T02:32:57;142300.59;;;-0.86;100.00
47530;BME280;33272;51.922;7.730;2023-01-26T02:35:24;142300.59;;;-0.86;100.00
47530;BME280;33272;51.922;7.730;2023-01-26T02:37:51;142286.78;;;-0.91;100.00
47530;BME280;33272;51.922;7.730;2023-01-26T02:40:29;142283.03;;;-0.93;100.00
47530;BME280;33272;51.922;7.730;2023-01-26T02:42:59;142293.06;;;-0.89;100.00
47530;BME280;33272;51.922;7.730;2023-01-26T02:45:27;142283.03;;;-0.93;100.00
47530;BME280;33272;51.922;7.730;2023-01-26T02:47:55;142285.53;;;-0.92;100.00
47530;BME280;33272;51.922;7.730;2023-01-26T02:50:24;142305.63;;;-0.84;100.00
47530;BME280;33272;51.922;7.730;2023-01-26T02:52:50;142326.97;;;-0.75;100.00
47530;BME280;33272;51.922;7.730;2023-01-26T02:55:17;142326.97;;;-0.75;100.00
47530;BME280;33272;51.922;7.730;2023-01-26T02:57:55;142304.38;;;-0.84;100.00
47530;BME280;33272;51.922;7.730;2023-01-26T03:00:26;142301.84;;;-0.85;100.00
47530;BME280;33272;51.922;7.730;2023-01-26T03:02:56;142311.91;;;-0.81;100.00
47530;BME280;33272;51.922;7.730;2023-01-26T03:05:24;142331.94;;;-0.73;100.00
47530;BME280;33272;51.922;7.730;2023-01-26T03:07:51;142352.03;;;-0.65;100.00
47530;BME280;33272;51.922;7.730;2023-01-26T03:10:19;142352.03;;;-0.65;100.00
47530;BME280;33272;51.922;7.730;2023-01-26T03:12:48;142334.50;;;-0.72;100.00
47530;BME280;33272;51.922;7.730;2023-01-26T03:15:15;142347.00;;;-0.67;100.00
47530;BME280;33272;51.922;7.730;2023-01-26T03:18:11;142325.72;;;-0.76;100.00
47530;BME280;33272;51.922;7.730;2023-01-26T03:20:57;142334.50;;;-0.72;100.00
47530;BME280;33272;51.922;7.730;2023-01-26T03:23:42;142348.25;;;-0.66;100.00
47530;BME280;33272;51.922;7.730;2023-01-26T03:26:27;142355.78;;;-0.63;100.00
47530;BME280;33272;51.922;7.730;2023-01-26T03:29:11;142370.84;;;-0.57;100.00
47530;BME280;33272;51.922;7.730;2023-01-26T03:31:38;142382.16;;;-0.53;100.00
47530;BME280;33272;51.922;7.730;2023-01-26T03:34:07;142392.19;;;-0.49;100.00
47530;BME280;33272;51.922;7.730;2023-01-26T03:36:34;142392.19;;;-0.49;100.00
47530;BME280;33272;51.922;7.730;2023-01-26T03:39:02;142407.25;;;-0.42;100.00
47530;BME280;33272;51.922;7.730;2023-01-26T03:41:29;142418.56;;;-0.38;100.00
47530;BME280;33272;51.922;7.730;2023-01-26T03:44:13;142414.78;;;-0.39;100.00
47530;BME280;33272;51.922;7.730;2023-01-26T03:46:58;142384.66;;;-0.52;100.00
47530;BME280;33272;51.922;7.730;2023-01-26T03:49:45;142385.91;;;-0.51;100.00
47530;BME280;33272;51.922;7.730;2023-01-26T03:52:30;142402.22;;;-0.44;100.00
47530;BME280;33272;51.922;7.730;2023-01-26T03:55:15;142406.00;;;-0.43;100.00
47530;BME280;33272;51.922;7.730;2023-01-26T03:58:00;142412.28;;;-0.40;100.00
47530;BME280;33272;51.922;7.730;2023-01-26T04:00:27;142419.81;;;-0.37;100.00
47530;BME280;33272;51.922;7.730;2023-01-26T04:02:54;142424.81;;;-0.35;100.00
47530;BME280;33272;51.922;7.730;2023-01-26T04:05:40;142433.59;;;-0.32;100.00
47530;BME280;33272;51.922;7.730;2023-01-26T04:08:24;142419.81;;;-0.37;100.00
47530;BME280;33272;51.922;7.730;2023-01-26T04:10:53;142419.81;;;-0.37;100.00
47530;BME280;33272;51.922;7.730;2023-01-26T04:13:22;142426.06;;;-0.35;100.00
47530;BME280;33272;51.922;7.730;2023-01-26T04:16:09;142433.59;;;-0.32;100.00
47530;BME280;33272;51.922;7.730;2023-01-26T04:18:53;142437.38;;;-0.30;100.00
47530;BME280;33272;51.922;7.730;2023-01-26T04:21:40;142437.38;;;-0.30;100.00
47530;BME280;33272;51.922;7.730;2023-01-26T04:24:07;142438.63;;;-0.30;100.00
47530;BME280;33272;51.922;7.730;2023-01-26T04:26:40;142436.13;;;-0.31;100.00
47530;BME280;33272;51.922;7.730;2023-01-26T04:29:09;142438.63;;;-0.30;100.00
47530;BME280;33272;51.922;7.730;2023-01-26T04:31:37;142428.59;;;-0.34;100.00
47530;BME280;33272;51.922;7.730;2023-01-26T04:34:09;142438.63;;;-0.30;100.00
47530;BME280;33272;51.922;7.730;2023-01-26T04:36:36;142442.41;;;-0.28;100.00
47530;BME280;33272;51.922;7.730;2023-01-26T04:39:04;142433.59;;;-0.32;100.00
47530;BME280;33272;51.922;7.730;2023-01-26T04:41:32;142439.88;;;-0.29;100.00
47530;BME280;33272;51.922;7.730;2023-01-26T04:43:59;142442.41;;;-0.28;100.00
47530;BME280;33272;51.922;7.730;2023-01-26T04:46:26;142438.63;;;-0.30;100.00
47530;BME280;33272;51.922;7.730;2023-01-26T04:48:53;142429.84;;;-0.33;100.00
47530;BME280;33272;51.922;7.730;2023-01-26T04:51:21;142432.34;;;-0.32;100.00
47530;BME280;33272;51.922;7.730;2023-01-26T04:53:49;142428.59;;;-0.34;100.00
47530;BME280;33272;51.922;7.730;2023-01-26T04:56:22;142437.38;;;-0.30;100.00
47530;BME280;33272;51.922;7.730;2023-01-26T04:58:49;142446.16;;;-0.27;100.00
47530;BME280;33272;51.922;7.730;2023-01-26T05:01:16;142453.69;;;-0.24;100.00
47530;BME280;33272;51.922;7.730;2023-01-26T05:03:44;142463.72;;;-0.19;100.00
47530;BME280;33272;51.922;7.730;2023-01-26T05:06:11;142472.50;;;-0.16;100.00
47530;BME280;33272;51.922;7.730;2023-01-26T05:08:38;142481.34;;;-0.12;100.00
47530;BME280;33272;51.922;7.730;2023-01-26T05:11:05;142461.22;;;-0.20;100.00
47530;BME280;33272;51.922;7.730;2023-01-26T05:13:33;142468.75;;;-0.17;100.00
47530;BME280;33272;51.922;7.730;2023-01-26T05:16:02;142485.06;;;-0.11;100.00
47530;BME280;33272;51.922;7.730;2023-01-26T05:18:30;142496.41;;;-0.06;100.00
47530;BME280;33272;51.922;7.730;2023-01-26T05:20:57;142487.56;;;-0.10;100.00
47530;BME280;33272;51.922;7.730;2023-01-26T05:23:24;142486.31;;;-0.10;100.00
47530;BME280;33272;51.922;7.730;2023-01-26T05:25:51;142480.03;;;-0.13;100.00
47530;BME280;33272;51.922;7.730;2023-01-26T05:28:18;142473.81;;;-0.15;100.00
47530;BME280;33272;51.922;7.730;2023-01-26T05:30:46;142461.22;;;-0.20;100.00
47530;BME280;33272;51.922;7.730;2023-01-26T05:33:13;142459.97;;;-0.21;100.00
47530;BME280;33272;51.922;7.730;2023-01-26T05:35:40;142470.00;;;-0.17;100.00
47530;BME280;33272;51.922;7.730;2023-01-26T05:38:07;142473.81;;;-0.15;100.00
47530;BME280;33272;51.922;7.730;2023-01-26T05:40:34;142461.22;;;-0.20;100.00
47530;BME280;33272;51.922;7.730;2023-01-26T05:43:01;142468.75;;;-0.17;100.00
47530;BME280;33272;51.922;7.730;2023-01-26T05:45:28;142463.72;;;-0.19;100.00
47530;BME280;33272;51.922;7.730;2023-01-26T05:47:57;142483.81;;;-0.11;100.00
47530;BME280;33272;51.922;7.730;2023-01-26T05:50:24;142502.63;;;-0.04;100.00
47530;BME280;33272;51.922;7.730;2023-01-26T05:52:51;142493.84;;;-0.07;100.00
47530;BME280;33272;51.922;7.730;2023-01-26T05:55:18;142513.97;;;0.01;100.00
47530;BME280;33272;51.922;7.730;2023-01-26T05:57:45;142522.75;;;0.05;100.00
47530;BME280;33272;51.922;7.730;2023-01-26T06:00:13;142500.16;;;-0.05;100.00
47530;BME280;33272;51.922;7.730;2023-01-26T06:02:41;142522.75;;;0.05;100.00
47530;BME280;33272;51.922;7.730;2023-01-26T06:05:09;142508.94;;;-0.01;100.00
47530;BME280;33272;51.922;7.730;2023-01-26T06:07:37;142508.94;;;-0.01;100.00
47530;BME280;33272;51.922;7.730;2023-01-26T06:10:06;142518.94;;;0.03;100.00
47530;BME280;33272;51.922;7.730;2023-01-26T06:12:33;142521.50;;;0.04;100.00
47530;BME280;33272;51.922;7.730;2023-01-26T06:15:04;142527.78;;;0.07;100.00
47530;BME280;33272;51.922;7.730;2023-01-26T06:17:32;142535.31;;;0.10;100.00
47530;BME280;33272;51.922;7.730;2023-01-26T06:19:59;142536.56;;;0.10;100.00
47530;BME280;33272;51.922;7.730;2023-01-26T06:22:27;142559.19;;;0.19;100.00
47530;BME280;33272;51.922;7.730;2023-01-26T06:24:54;142546.59;;;0.14;100.00
47530;BME280;33272;51.922;7.730;2023-01-26T06:27:21;142550.41;;;0.16;100.00
47530;BME280;33272;51.922;7.730;2023-01-26T06:29:48;142547.84;;;0.15;100.00
47530;BME280;33272;51.922;7.730;2023-01-26T06:32:15;142562.91;;;0.21;100.00
47530;BME280;33272;51.922;7.730;2023-01-26T06:34:42;142559.19;;;0.19;100.00
47530;BME280;33272;51.922;7.730;2023-01-26T06:37:09;142552.88;;;0.17;100.00
47530;BME280;33272;51.922;7.730;2023-01-26T06:39:38;142544.09;;;0.13;100.00
47530;BME280;33272;51.922;7.730;2023-01-26T06:42:07;142531.53;;;0.08;100.00
47530;BME280;33272;51.922;7.730;2023-01-26T06:44:33;142541.56;;;0.12;100.00
47530;BME280;33272;51.922;7.730;2023-01-26T06:47:00;142527.78;;;0.07;100.00
47530;BME280;33272;51.922;7.730;2023-01-26T06:49:27;142530.28;;;0.08;100.00
47530;BME280;33272;51.922;7.730;2023-01-26T06:51:58;142525.25;;;0.06;100.00
47530;BME280;33272;51.922;7.730;2023-01-26T06:54:28;142518.94;;;0.03;100.00
47530;BME280;33272;51.922;7.730;2023-01-26T06:56:56;142506.44;;;-0.02;100.00
47530;BME280;33272;51.922;7.730;2023-01-26T06:59:23;142496.41;;;-0.06;100.00
47530;BME280;33272;51.922;7.730;2023-01-26T07:01:50;142477.53;;;-0.14;100.00
47530;BME280;33272;51.922;7.730;2023-01-26T07:04:17;142478.78;;;-0.13;100.00
47530;BME280;33272;51.922;7.730;2023-01-26T07:06:44;142501.38;;;-0.04;100.00
47530;BME280;33272;51.922;7.730;2023-01-26T07:09:11;142502.63;;;-0.04;100.00
47530;BME280;33272;51.922;7.730;2023-01-26T07:11:38;142511.47;;;0.00;100.00
47530;BME280;33272;51.922;7.730;2023-01-26T07:14:07;142510.16;;;-0.01;100.00
47530;BME280;33272;51.922;7.730;2023-01-26T07:16:34;142515.22;;;0.02;100.00
47530;BME280;33272;51.922;7.730;2023-01-26T07:19:01;142513.97;;;0.01;100.00
47530;BME280;33272;51.922;7.730;2023-01-26T07:21:28;142527.78;;;0.07;100.00
47530;BME280;33272;51.922;7.730;2023-01-26T07:23:55;142532.78;;;0.09;100.00
47530;BME280;33272;51.922;7.730;2023-01-26T07:26:23;142518.94;;;0.03;100.00
47530;BME280;33272;51.922;7.730;2023-01-26T07:28:50;142540.31;;;0.12;100.00
47530;BME280;33272;51.922;7.730;2023-01-26T07:31:18;142547.84;;;0.15;100.00
47530;BME280;33272;51.922;7.730;2023-01-26T07:33:45;142562.91;;;0.21;100.00
47530;BME280;33272;51.922;7.730;2023-01-26T07:36:12;142586.78;;;0.31;100.00
47530;BME280;33272;51.922;7.730;2023-01-26T07:38:39;142584.28;;;0.30;100.00
47530;BME280;33272;51.922;7.730;2023-01-26T07:41:09;142598.09;;;0.35;100.00
47530;BME280;33272;51.922;7.730;2023-01-26T07:43:38;142606.91;;;0.39;100.00
47530;BME280;33272;51.922;7.730;2023-01-26T07:46:06;142579.25;;;0.28;100.00
47530;BME280;33272;51.922;7.730;2023-01-26T07:48:36;142591.81;;;0.33;100.00
47530;BME280;33272;51.922;7.730;2023-01-26T07:51:04;142578.00;;;0.27;100.00
47530;BME280;33272;51.922;7.730;2023-01-26T07:53:33;142600.59;;;0.36;100.00
47530;BME280;33272;51.922;7.730;2023-01-26T07:56:09;142605.66;;;0.38;100.00
47530;BME280;33272;51.922;7.730;2023-01-26T07:58:36;142620.72;;;0.44;100.00
47530;BME280;33272;51.922;7.730;2023-01-26T08:01:08;142621.97;;;0.45;100.00
47530;BME280;33272;51.922;7.730;2023-01-26T08:03:37;142598.09;;;0.35;100.00
47530;BME280;33272;51.922;7.730;2023-01-26T08:06:06;142590.56;;;0.32;100.00
47530;BME280;33272;51.922;7.730;2023-01-26T08:08:33;142603.09;;;0.37;100.00
47530;BME280;33272;51.922;7.730;2023-01-26T08:11:01;142620.72;;;0.44;100.00
47530;BME280;33272;51.922;7.730;2023-01-26T08:13:29;142635.78;;;0.51;100.00
47530;BME280;33272;51.922;7.730;2023-01-26T08:16:00;142654.63;;;0.58;100.00
47530;BME280;33272;51.922;7.730;2023-01-26T08:18:28;142635.78;;;0.51;100.00
47530;BME280;33272;51.922;7.730;2023-01-26T08:20:57;142655.88;;;0.59;100.00
47530;BME280;33272;51.922;7.730;2023-01-26T08:23:25;142674.75;;;0.66;100.00
47530;BME280;33272;51.922;7.730;2023-01-26T08:25:52;142670.94;;;0.65;100.00
47530;BME280;33272;51.922;7.730;2023-01-26T08:28:19;142670.94;;;0.65;100.00
47530;BME280;33272;51.922;7.730;2023-01-26T08:30:47;142682.28;;;0.69;100.00
47530;BME280;33272;51.922;7.730;2023-01-26T08:33:14;142678.47;;;0.68;100.00
47530;BME280;33272;51.922;7.730;2023-01-26T08:35:41;142677.25;;;0.67;100.00
47530;BME280;33272;51.922;7.730;2023-01-26T08:38:09;142667.19;;;0.63;100.00
47530;BME280;33272;51.922;7.730;2023-01-26T08:40:36;142676.00;;;0.67;100.00
47530;BME280;33272;51.922;7.730;2023-01-26T08:43:03;142669.69;;;0.64;100.00
47530;BME280;33272;51.922;7.730;2023-01-26T08:45:31;142689.81;;;0.73;100.00
47530;BME280;33272;51.922;7.730;2023-01-26T08:47:58;142696.06;;;0.75;100.00
47530;BME280;33272;51.922;7.730;2023-01-26T08:50:25;142694.81;;;0.75;100.00
47530;BME280;33272;51.922;7.730;2023-01-26T08:52:54;142673.44;;;0.66;100.00
47530;BME280;33272;51.922;7.730;2023-01-26T08:55:24;142670.94;;;0.65;100.00
47530;BME280;33272;51.922;7.730;2023-01-26T08:57:53;142687.28;;;0.72;100.00
47530;BME280;33272;51.922;7.730;2023-01-26T09:00:23;142697.31;;;0.76;100.00
47530;BME280;33272;51.922;7.730;2023-01-26T09:02:52;142698.59;;;0.76;100.00
47530;BME280;33272;51.922;7.730;2023-01-26T09:05:23;142723.72;;;0.86;100.00
47530;BME280;33272;51.922;7.730;2023-01-26T09:07:50;142719.94;;;0.85;100.00
47530;BME280;33272;51.922;7.730;2023-01-26T09:10:17;142728.75;;;0.88;100.00
47530;BME280;33272;51.922;7.730;2023-01-26T09:12:46;142703.59;;;0.78;100.00
47530;BME280;33272;51.922;7.730;2023-01-26T09:15:13;142713.69;;;0.82;100.00
47530;BME280;33272;51.922;7.730;2023-01-26T09:17:40;142726.22;;;0.87;100.00
47530;BME280;33272;51.922;7.730;2023-01-26T09:20:09;142745.09;;;0.95;100.00
47530;BME280;33272;51.922;7.730;2023-01-26T09:22:36;142753.88;;;0.99;100.00
47530;BME280;33272;51.922;7.730;2023-01-26T09:25:05;142737.56;;;0.92;100.00
47530;BME280;33272;51.922;7.730;2023-01-26T09:27:32;142724.97;;;0.87;100.00
47530;BME280;33272;51.922;7.730;2023-01-26T09:30:00;142722.47;;;0.86;100.00
47530;BME280;33272;51.922;7.730;2023-01-26T09:32:27;142746.34;;;0.96;100.00
47530;BME280;33272;51.922;7.730;2023-01-26T09:34:55;142765.19;;;1.03;100.00
47530;BME280;33272;51.922;7.730;2023-01-26T09:37:22;142787.81;;;1.12;100.00
47530;BME280;33272;51.922;7.730;2023-01-26T09:39:49;142809.19;;;1.21;100.00
47530;BME280;33272;51.922;7.730;2023-01-26T09:42:31;142799.16;;;1.17;100.00
47530;BME280;33272;51.922;7.730;2023-01-26T09:45:22;142797.84;;;1.16;100.00
47530;BME280;33272;51.922;7.730;2023-01-26T09:48:06;142797.84;;;1.16;100.00
47530;BME280;33272;51.922;7.730;2023-01-26T09:50:39;142806.69;;;1.20;100.00
47530;BME280;33272;51.922;7.730;2023-01-26T09:53:13;142814.22;;;1.23;100.00
47530;BME280;33272;51.922;7.730;2023-01-26T09:55:41;142829.31;;;1.29;100.00
47530;BME280;33272;51.922;7.730;2023-01-26T09:58:14;142829.31;;;1.29;100.00
47530;BME280;33272;51.922;7.730;2023-01-26T10:00:48;142815.47;;;1.24;100.00
47530;BME280;33272;51.922;7.730;2023-01-26T10:03:24;142845.66;;;1.36;100.00
47530;BME280;33272;51.922;7.730;2023-01-26T10:05:57;142843.09;;;1.35;100.00
47530;BME280;33272;51.922;7.730;2023-01-26T10:08:26;142855.69;;;1.40;100.00
47530;BME280;33272;51.922;7.730;2023-01-26T10:10:57;142863.25;;;1.43;100.00
47530;BME280;33272;51.922;7.730;2023-01-26T10:13:25;142877.09;;;1.49;100.00
47530;BME280;33272;51.922;7.730;2023-01-26T10:15:57;142887.13;;;1.53;100.00
47530;BME280;33272;51.922;7.730;2023-01-26T10:18:31;142873.28;;;1.47;100.00
47530;BME280;33272;51.922;7.730;2023-01-26T10:21:01;142890.88;;;1.54;100.00
47530;BME280;33272;51.922;7.730;2023-01-26T10:23:30;142851.91;;;1.38;100.00
47530;BME280;33272;51.922;7.730;2023-01-26T10:26:10;142854.44;;;1.39;100.00
47530;BME280;33272;51.922;7.730;2023-01-26T10:28:37;142849.41;;;1.37;100.00
47530;BME280;33272;51.922;7.730;2023-01-26T10:31:14;142851.91;;;1.38;100.00
47530;BME280;33272;51.922;7.730;2023-01-26T10:33:49;142856.94;;;1.41;100.00
47530;BME280;33272;51.922;7.730;2023-01-26T10:36:17;142872.03;;;1.47;100.00
47530;BME280;33272;51.922;7.730;2023-01-26T10:38:46;142859.44;;;1.42;100.00
47530;BME280;33272;51.922;7.730;2023-01-26T10:41:25;142864.50;;;1.44;100.00
47530;BME280;33272;51.922;7.730;2023-01-26T10:43:55;142887.13;;;1.53;100.00
47530;BME280;33272;51.922;7.730;2023-01-26T10:46:30;142903.47;;;1.59;100.00
47530;BME280;33272;51.922;7.730;2023-01-26T10:49:01;142916.06;;;1.65;100.00
47530;BME280;33272;51.922;7.730;2023-01-26T10:51:31;142923.59;;;1.68;100.00
47530;BME280;33272;51.922;7.730;2023-01-26T10:54:20;142916.06;;;1.65;100.00
47530;BME280;33272;51.922;7.730;2023-01-26T10:56:50;142922.34;;;1.67;100.00
47530;BME280;33272;51.922;7.730;2023-01-26T10:59:28;142931.16;;;1.71;100.00
47530;BME280;33272;51.922;7.730;2023-01-26T11:02:01;142953.78;;;1.80;100.00
47530;BME280;33272;51.922;7.730;2023-01-26T11:04:29;142963.84;;;1.84;100.00
47530;BME280;33272;51.922;7.730;2023-01-26T11:07:23;142971.38;;;1.87;100.00
47530;BME280;33272;51.922;7.730;2023-01-26T11:09:51;142991.47;;;1.95;100.00
47530;BME280;33272;51.922;7.730;2023-01-26T11:12:21;143001.56;;;1.99;100.00
47530;BME280;33272;51.922;7.730;2023-01-26T11:15:02;142992.78;;;1.96;100.00
47530;BME280;33272;51.922;7.730;2023-01-26T11:17:36;142996.53;;;1.97;100.00
47530;BME280;33272;51.922;7.730;2023-01-26T11:20:44;142934.91;;;1.72;100.00
47530;BME280;33272;51.922;7.730;2023-01-26T11:23:20;142948.75;;;1.78;100.00
47530;BME280;33272;51.922;7.730;2023-01-26T11:28:57;142958.78;;;1.82;100.00
47530;BME280;33272;51.922;7.730;2023-01-26T11:31:38;142978.94;;;1.90;100.00
47530;BME280;33272;51.922;7.730;2023-01-26T11:34:25;142982.69;;;1.92;100.00
47530;BME280;33272;51.922;7.730;2023-01-26T11:37:07;142994.03;;;1.96;100.00
47530;BME280;33272;51.922;7.730;2023-01-26T11:39:48;142999.03;;;1.98;100.00
47530;BME280;33272;51.922;7.730;2023-01-26T11:42:26;143004.06;;;2.00;100.00
47530;BME280;33272;51.922;7.730;2023-01-26T11:45:19;142988.97;;;1.94;100.00
47530;BME280;33272;51.922;7.730;2023-01-26T11:48:00;142987.72;;;1.94;100.00
47530;BME280;33272;51.922;7.730;2023-01-26T11:50:42;142982.69;;;1.92;100.00
47530;BME280;33272;51.922;7.730;2023-01-26T11:53:36;142966.34;;;1.85;100.00
47530;BME280;33272;51.922;7.730;2023-01-26T11:56:23;142977.69;;;1.90;100.00
47530;BME280;33272;51.922;7.730;2023-01-26T11:59:01;143006.59;;;2.01;100.00
47530;BME280;33272;51.922;7.730;2023-01-26T12:01:33;143022.94;;;2.08;100.00
47530;BME280;33272;51.922;7.730;2023-01-26T12:04:01;143035.53;;;2.13;100.00
47530;BME280;33272;51.922;7.730;2023-01-26T12:06:37;143014.13;;;2.04;100.00
47530;BME280;33272;51.922;7.730;2023-01-26T12:09:12;143027.97;;;2.10;100.00
47530;BME280;33272;51.922;7.730;2023-01-26T12:11:50;143051.88;;;2.20;100.00
47530;BME280;33272;51.922;7.730;2023-01-26T12:14:33;143060.69;;;2.23;100.00
47530;BME280;33272;51.922;7.730;2023-01-26T12:17:26;143084.56;;;2.33;100.00
47530;BME280;33272;51.922;7.730;2023-01-26T12:20:05;143097.19;;;2.38;100.00
47530;BME280;33272;51.922;7.730;2023-01-26T12:22:45;143092.13;;;2.36;100.00
47530;BME280;33272;51.922;7.730;2023-01-26T12:25:27;143097.19;;;2.38;100.00
47530;BME280;33272;51.922;7.730;2023-01-26T12:28:03;143090.88;;;2.36;100.00
47530;BME280;33272;51.922;7.730;2023-01-26T12:30:39;143109.78;;;2.43;100.00
47530;BME280;33272;51.922;7.730;2023-01-26T12:33:10;143131.13;;;2.52;100.00
47530;BME280;33272;51.922;7.730;2023-01-26T12:41:44;143126.13;;;2.50;100.00
47530;BME280;33272;51.922;7.730;2023-01-26T12:44:28;143136.19;;;2.54;100.00
47530;BME280;33272;51.922;7.730;2023-01-26T12:47:06;143127.38;;;2.50;100.00
47530;BME280;33272;51.922;7.730;2023-01-26T12:49:40;143150.03;;;2.60;100.00
47530;BME280;33272;51.922;7.730;2023-01-26T12:52:14;143163.91;;;2.65;100.00
47530;BME280;33272;51.922;7.730;2023-01-26T12:54:48;143179.00;;;2.71;100.00
47530;BME280;33272;51.922;7.730;2023-01-26T12:57:23;143175.22;;;2.70;100.00
47530;BME280;33272;51.922;7.730;2023-01-26T12:59:52;143181.50;;;2.72;100.00
47530;BME280;33272;51.922;7.730;2023-01-26T13:02:26;143190.31;;;2.76;100.00
47530;BME280;33272;51.922;7.730;2023-01-26T13:04:56;143184.00;;;2.73;100.00
47530;BME280;33272;51.922;7.730;2023-01-26T13:07:34;143171.44;;;2.68;100.00
47530;BME280;33272;51.922;7.730;2023-01-26T13:10:23;143170.16;;;2.68;100.00
47530;BME280;33272;51.922;7.730;2023-01-26T13:12:53;143181.50;;;2.72;100.00
47530;BME280;33272;51.922;7.730;2023-01-26T13:15:23;143186.56;;;2.74;100.00